Terminal Aerodrome Forecast
Issued by NWS

Current Version | Previous Version | Text Only | Print | Product List | Glossary On
Versions: 1 2 3 4 5 6 7 8 9 10 11 12 13 14 15 16 17 18 19 20 21 22 23 24 25 26 27 28 29 30 31 32 33 34 35 36
752
FTUS45 KGGW 281124
TAFOLF
TAF
KOLF 281124Z 2812/0112 09007KT P6SM OVC016
     FM282000 13007KT P6SM OVC015
     FM282300 VRB05KT P6SM OVC020
     FM010700 28006KT P6SM BKN035
     FM011000 27006KT P6SM SCT045=

USA.gov is the U.S. government's official web portal to all federal, state and local government web resources and services.